METAR Data
IDs: Format: Raw Decoded Include TAF

Data at: 1948 UTC 14 Dec 2018

KBMT 141935Z AUTO 28013G22KT 10SM OVC013 11/07 A2989 RMK AO2 T01050071
KBMT 141915Z AUTO 28015G23KT 10SM OVC013 11/08 A2988 RMK AO2 T01060075
KBMT 141855Z AUTO 27012KT 10SM OVC013 11/08 A2987 RMK AO2 T01100079
KBMT 141835Z AUTO 27013G20KT 10SM OVC013 11/08 A2987 RMK AO2 T01130078
KBMT 141815Z AUTO 26010G20KT 10SM OVC013 11/08 A2987 RMK AO2 T01120083
KBMT 141755Z AUTO 27012G20KT 10SM OVC011 11/08 A2988 RMK AO2 T01060083 10106 20082
KBMT 141735Z AUTO 25008KT 10SM -DZ OVC011 10/08 A2990 RMK AO2 T00990082
KBMT 141715Z AUTO 23009KT 10SM -RA SCT006 OVC014 10/08 A2990 RMK AO2 T00950080
KBMT 141655Z AUTO 23009KT 10SM OVC006 09/08 A2991 RMK AO2 T00890075
KBMT 141635Z AUTO 23010KT 5SM BR OVC008 09/07 A2992 RMK AO2 T00900073
KBMT 141615Z AUTO 24009G14KT 5SM BR OVC008 09/07 A2992 RMK AO2 T00870071
KBMT 141555Z AUTO 25008KT 4SM BR BKN008 OVC014 09/07 A2992 RMK AO2 T00880072
KBMT 141535Z AUTO 25009KT 4SM -RA BKN008 OVC014 08/07 A2991 RMK AO2 T00840068
KBMT 141515Z AUTO 25009KT 3SM DZ SCT008 OVC012 09/07 A2991 RMK AO2 T00850067
KBMT 141455Z AUTO 25006G15KT 4SM HZ OVC014 08/06 A2990 RMK AO2 LTG DSNT NE T00830058
KBMT 141435Z AUTO 25008G14KT 10SM OVC016 09/05 A2989 RMK AO2 LTG DSNT N T00880052
KBMT 141415Z AUTO 24012G17KT 7SM OVC018 09/05 A2989 RMK AO2 T00860052
KBMT 141355Z AUTO 25007KT 10SM OVC018 09/05 A2988 RMK AO2 T00900048
KBMT 141335Z AUTO 24012G16KT 10SM OVC020 09/05 A2987 RMK AO2 T00880046
KBMT 141315Z AUTO 24010KT 10SM OVC018 09/05 A2986 RMK AO2 T00870048
KBMT 141255Z AUTO 25013G21KT 10SM OVC020 09/05 A2985 RMK AO2 LTG DSNT N T00870047
KBMT 141235Z AUTO 25008G16KT 10SM OVC022 09/05 A2984 RMK AO2 T00880046
KBMT 141215Z AUTO 24011G16KT 220V280 10SM OVC022 09/05 A2983 RMK AO2 LTG DSNT N T00890045
KBMT 141155Z AUTO 24012G17KT 10SM BKN022 OVC037 09/04 A2982 RMK AO2 T00900044 10118 20087
KBMT 141135Z AUTO 24010KT 10SM SCT024 OVC037 09/04 A2982 RMK AO2 T00910042
KBMT 141115Z AUTO 24010KT 10SM BKN029 OVC035 09/04 A2982 RMK AO2 T00920040
KBMT 141055Z AUTO 25009KT 10SM OVC030 09/04 A2983 RMK AO2 T00920039
KBMT 141035Z AUTO 25011G17KT 10SM OVC030 09/04 A2983 RMK AO2 T00930039
KBMT 141015Z AUTO 24010G14KT 10SM OVC033 09/04 A2983 RMK AO2 LTG DSNT N T00930043
KBMT 140955Z AUTO 23004KT 10SM OVC037 09/04 A2982 RMK AO2 T00900042
KBMT 140935Z AUTO 24006KT 10SM OVC039 09/04 A2982 RMK AO2 T00890040
KBMT 140915Z AUTO 27004KT 10SM OVC035 09/04 A2982 RMK AO2 LTG DSNT NE T00900041
KBMT 140855Z AUTO 28006KT 10SM OVC031 09/04 A2982 RMK AO2 LTG DSNT NE T00920041
KBMT 140835Z AUTO 25005KT 10SM OVC031 09/04 A2983 RMK AO2 T00900040
KBMT 140815Z AUTO 27005KT 10SM BKN029 09/04 A2983 RMK AO2 T00910043
KBMT 140755Z AUTO 25008KT 10SM CLR 09/04 A2983 RMK AO2 T00900040
KBMT 140735Z AUTO 25008KT 10SM CLR 09/04 A2982 RMK AO2 T00940038
KBMT 140715Z AUTO 25010KT 10SM CLR 10/04 A2982 RMK AO2 T00970041
KBMT 140655Z AUTO 26008G14KT 10SM CLR 10/05 A2981 RMK AO2 T01030047
KBMT 140635Z AUTO 26011G16KT 10SM CLR 11/05 A2981 RMK AO2 T01070051
KBMT 140615Z AUTO 26012G17KT 10SM CLR 11/05 A2981 RMK AO2 T01130051
KBMT 140555Z AUTO 26008KT 10SM CLR 12/06 A2981 RMK AO2 T01180056 10191 20118 402350118
KBMT 140535Z AUTO 26011G15KT 10SM CLR 12/06 A2980 RMK AO2 T01230061
KBMT 140515Z AUTO 27014G20KT 10SM CLR 13/07 A2980 RMK AO2 T01320065
KBMT 140455Z AUTO 26013G23KT 10SM CLR 15/08 A2978 RMK AO2 T01460079
KBMT 140435Z AUTO 25008KT 10SM SCT065 16/13 A2977 RMK AO2 T01610130
KBMT 140415Z AUTO 23006KT 10SM SCT065 16/14 A2976 RMK AO2 T01580141
KBMT 140355Z AUTO 21004KT 10SM CLR 16/14 A2976 RMK AO2 T01560141
KBMT 140335Z AUTO 20003KT 10SM SCT060 17/15 A2975 RMK AO2 T01670145
KBMT 140315Z AUTO 23004KT 10SM BKN060 OVC120 18/15 A2976 RMK AO2 T01770150
KBMT 140255Z AUTO 23006KT 10SM OVC120 18/15 A2976 RMK AO2 T01800152
KBMT 140235Z AUTO 24007KT 10SM OVC120 18/16 A2976 RMK AO2 T01820159
KBMT 140215Z AUTO 20005KT 10SM SCT055 SCT075 OVC110 18/16 A2976 RMK AO2 T01810162
KBMT 140150Z AUTO 17005KT 10SM SCT055 OVC110 18/16 A2974 RMK AO2 LTG DSNT NE T01810162
KBMT 140135Z AUTO 17004KT 10SM OVC110 18/16 A2974 RMK AO2 LTG DSNT NE T01810162
KBMT 140115Z AUTO 19004KT 10SM OVC110 18/16 A2974 RMK AO2 LTG DSNT S T01830162
KBMT 140055Z AUTO 18003KT 10SM OVC110 18/16 A2974 RMK AO2 T01810161
KBMT 140035Z AUTO 21004KT 10SM SCT110 18/16 A2973 RMK AO2 T01810161
KBMT 140015Z AUTO 21004KT 10SM CLR 19/16 A2973 RMK AO2 T01850162
KBMT 132355Z AUTO 20005KT 10SM SCT090 19/16 A2972 RMK AO2 LTG DSNT S T01920162 10235 20192
KBMT 132335Z AUTO 21008KT 10SM BKN090 BKN110 20/16 A2972 RMK AO2 LTG DSNT N T02000163
KBMT 132315Z AUTO 21007KT 10SM OVC090 20/16 A2972 RMK AO2 T02040162
KBMT 132255Z AUTO 22007G14KT 10SM -DZ SCT033 BKN100 OVC120 21/16 A2972 RMK AO2 T02060162
KBMT 132235Z AUTO 22010KT 10SM SCT026 SCT035 BKN110 21/16 A2972 RMK AO2 T02110158
KBMT 132215Z AUTO 22014G20KT 10SM BKN026 OVC110 22/16 A2972 RMK AO2 T02160159
KBMT 132155Z AUTO 20013G18KT 10SM BKN028 22/16 A2971 RMK AO2 T02210157
KBMT 132135Z AUTO 19012G17KT 10SM SCT030 BKN035 23/16 A2969 RMK AO2 T02270157
KBMT 132115Z AUTO 20010G18KT 10SM BKN030 BKN035 23/16 A2970 RMK AO2 LTG DSNT N T02280158
KBMT 132055Z AUTO 21015G21KT 10SM SCT030 BKN040 BKN048 23/16 A2971 RMK AO2 LTG DSNT NW T02310157
KBMT 132035Z AUTO 20012G19KT 10SM SCT030 BKN040 BKN110 23/16 A2971 RMK AO2 T02310158
KBMT 132015Z AUTO 20010G17KT 10SM CLR 23/15 A2971 RMK AO2 T02320153
KBMT 131955Z AUTO 21012G20KT 10SM SCT025 SCT038 SCT050 23/15 A2971 RMK AO2 T02300152
KBMT 131935Z AUTO 19014G20KT 10SM SCT022 SCT027 BKN048 23/16 A2972 RMK AO2 LTG DSNT N T02280157
KBMT 131915Z AUTO 19010G19KT 10SM BKN020 BKN041 BKN050 22/17 A2973 RMK AO2 T02210165
KBMT 131855Z AUTO 18013G21KT 10SM SCT020 BKN038 OVC050 22/17 A2974 RMK AO2 T02200166
KBMT 131835Z AUTO 19017G23KT 10SM BKN020 BKN029 BKN039 22/17 A2974 RMK AO2 T02240165
KBMT 131815Z AUTO 18015G23KT 10SM BKN020 OVC026 23/17 A2974 RMK AO2 T02300170
KBMT 131755Z AUTO 19015G20KT 10SM BKN020 BKN034 OVC070 22/18 A2976 RMK AO2 T02240175 10224 20167
KBMT 131735Z AUTO 19014G18KT 10SM SCT013 BKN020 OVC070 22/18 A2978 RMK AO2 T02170177
KBMT 131715Z AUTO 20013G19KT 10SM OVC011 21/18 A2979 RMK AO2 T02090182
KBMT 131655Z AUTO 17010KT 10SM OVC011 20/18 A2980 RMK AO2 LTG DSNT N T01950178
KBMT 131635Z AUTO 16006KT 10SM OVC013 19/18 A2981 RMK AO2 T01900176
KBMT 131555Z AUTO 13007KT 10SM -RA OVC013 18/16 A2982 RMK AO2 T01760164
KBMT 131535Z AUTO 16006KT 10SM OVC015 18/16 A2982 RMK AO2 T01770164
KBMT 131515Z AUTO 12007KT 10SM BKN018 OVC024 18/16 A2981 RMK AO2 LTG DSNT N T01770164
KBMT 131455Z AUTO 12008KT 10SM BKN018 BKN023 OVC070 18/16 A2981 RMK AO2 T01750161
KBMT 131435Z AUTO 14005KT 10SM BKN026 BKN055 BKN070 17/16 A2981 RMK AO2 T01700157
KBMT 131415Z AUTO 13005KT 10SM RA SCT026 BKN050 OVC080 17/15 A2981 RMK AO2 T01670153
KBMT 131355Z AUTO 12007KT 10SM RA SCT011 BKN026 OVC070 17/16 A2981 RMK AO2 T01720155
KBMT 131335Z AUTO 18005KT 10SM -RA BKN009 BKN016 OVC120 18/16 A2983 RMK AO2 T01760163
KBMT 131315Z AUTO 25005KT 10SM -RA BKN011 BKN040 OVC075 18/17 A2983 RMK AO2 T01790165
KBMT 131255Z AUTO 14010G18KT 5SM RA SCT010 BKN065 OVC075 18/16 A2980 RMK AO2 LTG DSNT NE T01770163
KBMT 131235Z AUTO 16009G17KT 7SM RA BKN010 BKN033 OVC065 18/17 A2981 RMK AO2 LTG DSNT NE AND S T01790165
KBMT 131215Z AUTO 17004KT 4SM VCTSRA OVC010 18/17 A2983 RMK AO2 LTG DSNT NE THRU S T01770165
KBMT 131155Z AUTO 12003KT 5SM VCTSRA BKN009 OVC016 18/16 A2982 RMK AO2 LTG DSNT NE AND E T01750163 10186 20170
KBMT 131135Z AUTO 08005KT 5SM VCTSRA BKN014 BKN021 OVC026 18/16 A2981 RMK AO2 LTG DSNT NE AND S T01760162
KBMT 131115Z AUTO 36003KT 5SM RA SCT014 BKN040 OVC047 18/16 A2981 RMK AO2 LTG DSNT ALQDS T01780161
KBMT 131055Z AUTO 10005KT 5SM /VCTSRA SCT042 OVC055 18/16 A2979 RMK AO2 LTG DSNT ALQDS T01840161
KBMT 131035Z AUTO 13008KT 10SM -TSRA OVC055 19/16 A2978 RMK AO2 LTG DSNT W THRU N T01860158
KBMT 131015Z AUTO 12008KT 10SM VCTS BKN060 OVC065 19/16 A2979 RMK AO2 LTG DSNT SW THRU N T01850156
KBMT 130955Z AUTO 12008KT 10SM OVC050 18/16 A2980 RMK AO2 LTG DSNT SW THRU NW T01840155
KBMT 130935Z AUTO 12007KT 10SM OVC050 18/15 A2981 RMK AO2 LTG DSNT SW THRU NW T01810152
KBMT 130915Z AUTO 13007KT 10SM OVC050 18/15 A2982 RMK AO2 LTG DSNT SW THRU N T01800151
KBMT 130855Z AUTO 12008KT 10SM BKN050 BKN070 OVC080 18/15 A2982 RMK AO2 LTG DSNT W THRU N T01750150
KBMT 130835Z AUTO 12006KT 10SM BKN050 OVC070 18/15 A2984 RMK AO2 LTG DSNT W AND NW T01770150
KBMT 130815Z AUTO 12006KT 10SM BKN050 OVC060 18/15 A2987 RMK AO2 LTG DSNT NW T01750150
KBMT 130755Z AUTO 13007KT 10SM OVC050 18/15 A2988 RMK AO2 LTG DSNT W T01760150